sensor_id;sensor_type;location;lat;lon;timestamp;P1;durP1;ratioP1;P2;durP2;ratioP2
58137;SDS011;43955;47.362;18.930;2023-03-23T00:01:25;22.55;;;12.68;;
58137;SDS011;43955;47.362;18.930;2023-03-23T00:03:56;24.98;;;13.75;;
58137;SDS011;43955;47.362;18.930;2023-03-23T00:06:23;24.52;;;13.45;;
58137;SDS011;43955;47.362;18.930;2023-03-23T00:08:51;24.55;;;13.55;;
58137;SDS011;43955;47.362;18.930;2023-03-23T00:11:23;33.00;;;17.52;;
58137;SDS011;43955;47.362;18.930;2023-03-23T00:13:52;29.23;;;14.43;;
58137;SDS011;43955;47.362;18.930;2023-03-23T00:16:22;26.45;;;12.95;;
58137;SDS011;43955;47.362;18.930;2023-03-23T00:18:59;26.40;;;14.25;;
58137;SDS011;43955;47.362;18.930;2023-03-23T00:21:28;27.73;;;13.00;;
58137;SDS011;43955;47.362;18.930;2023-03-23T00:26:47;24.30;;;12.70;;
58137;SDS011;43955;47.362;18.930;2023-03-23T00:29:18;21.92;;;13.13;;
58137;SDS011;43955;47.362;18.930;2023-03-23T00:34:19;20.15;;;11.40;;
58137;SDS011;43955;47.362;18.930;2023-03-23T00:36:47;28.00;;;12.55;;
58137;SDS011;43955;47.362;18.930;2023-03-23T00:39:14;23.52;;;11.88;;
58137;SDS011;43955;47.362;18.930;2023-03-23T00:41:42;23.38;;;13.00;;
58137;SDS011;43955;47.362;18.930;2023-03-23T00:44:10;29.73;;;12.98;;
58137;SDS011;43955;47.362;18.930;2023-03-23T00:46:43;23.85;;;11.60;;
58137;SDS011;43955;47.362;18.930;2023-03-23T00:49:11;30.75;;;13.27;;
58137;SDS011;43955;47.362;18.930;2023-03-23T00:51:38;28.12;;;12.32;;
58137;SDS011;43955;47.362;18.930;2023-03-23T00:54:06;28.42;;;12.65;;
58137;SDS011;43955;47.362;18.930;2023-03-23T00:56:33;31.87;;;13.02;;
58137;SDS011;43955;47.362;18.930;2023-03-23T00:58:59;28.27;;;13.77;;
58137;SDS011;43955;47.362;18.930;2023-03-23T01:01:25;29.12;;;13.07;;
58137;SDS011;43955;47.362;18.930;2023-03-23T01:03:51;27.13;;;12.10;;
58137;SDS011;43955;47.362;18.930;2023-03-23T01:06:27;29.05;;;13.40;;
58137;SDS011;43955;47.362;18.930;2023-03-23T01:08:54;24.67;;;13.00;;
58137;SDS011;43955;47.362;18.930;2023-03-23T01:11:24;26.02;;;12.45;;
58137;SDS011;43955;47.362;18.930;2023-03-23T01:13:51;22.30;;;11.85;;
58137;SDS011;43955;47.362;18.930;2023-03-23T01:16:19;27.52;;;12.02;;
58137;SDS011;43955;47.362;18.930;2023-03-23T01:18:45;23.73;;;11.70;;
58137;SDS011;43955;47.362;18.930;2023-03-23T01:21:13;26.02;;;13.15;;
58137;SDS011;43955;47.362;18.930;2023-03-23T01:23:41;22.58;;;12.52;;
58137;SDS011;43955;47.362;18.930;2023-03-23T01:26:15;20.50;;;11.35;;
58137;SDS011;43955;47.362;18.930;2023-03-23T01:28:43;27.62;;;12.15;;
58137;SDS011;43955;47.362;18.930;2023-03-23T01:31:11;24.83;;;12.63;;
58137;SDS011;43955;47.362;18.930;2023-03-23T01:33:39;26.87;;;14.40;;
58137;SDS011;43955;47.362;18.930;2023-03-23T01:36:07;23.52;;;12.37;;
58137;SDS011;43955;47.362;18.930;2023-03-23T01:38:36;23.67;;;11.70;;
58137;SDS011;43955;47.362;18.930;2023-03-23T01:41:03;21.87;;;11.90;;
58137;SDS011;43955;47.362;18.930;2023-03-23T01:43:30;20.75;;;12.25;;
58137;SDS011;43955;47.362;18.930;2023-03-23T01:45:57;23.33;;;12.02;;
58137;SDS011;43955;47.362;18.930;2023-03-23T01:48:25;26.25;;;13.15;;
58137;SDS011;43955;47.362;18.930;2023-03-23T01:51:12;25.40;;;11.40;;
58137;SDS011;43955;47.362;18.930;2023-03-23T01:53:45;21.65;;;11.63;;
58137;SDS011;43955;47.362;18.930;2023-03-23T01:56:15;21.05;;;11.02;;
58137;SDS011;43955;47.362;18.930;2023-03-23T01:58:42;27.52;;;11.90;;
58137;SDS011;43955;47.362;18.930;2023-03-23T02:01:09;21.05;;;11.88;;
58137;SDS011;43955;47.362;18.930;2023-03-23T02:03:41;24.83;;;11.38;;
58137;SDS011;43955;47.362;18.930;2023-03-23T02:06:09;26.65;;;12.30;;
58137;SDS011;43955;47.362;18.930;2023-03-23T02:08:36;22.25;;;11.95;;
58137;SDS011;43955;47.362;18.930;2023-03-23T02:11:11;29.92;;;12.57;;
58137;SDS011;43955;47.362;18.930;2023-03-23T02:13:39;19.90;;;10.93;;
58137;SDS011;43955;47.362;18.930;2023-03-23T02:21:25;23.45;;;12.07;;
58137;SDS011;43955;47.362;18.930;2023-03-23T02:24:01;21.77;;;11.48;;
58137;SDS011;43955;47.362;18.930;2023-03-23T02:34:44;20.88;;;11.93;;
58137;SDS011;43955;47.362;18.930;2023-03-23T02:37:19;26.70;;;12.02;;
58137;SDS011;43955;47.362;18.930;2023-03-23T02:39:52;26.77;;;11.85;;
58137;SDS011;43955;47.362;18.930;2023-03-23T02:42:24;24.48;;;11.30;;
58137;SDS011;43955;47.362;18.930;2023-03-23T02:44:52;24.10;;;12.63;;
58137;SDS011;43955;47.362;18.930;2023-03-23T02:47:21;21.85;;;12.55;;
58137;SDS011;43955;47.362;18.930;2023-03-23T02:49:50;30.12;;;13.40;;
58137;SDS011;43955;47.362;18.930;2023-03-23T02:52:19;21.37;;;11.68;;
58137;SDS011;43955;47.362;18.930;2023-03-23T02:54:49;22.75;;;10.85;;
58137;SDS011;43955;47.362;18.930;2023-03-23T02:57:16;25.33;;;12.55;;
58137;SDS011;43955;47.362;18.930;2023-03-23T02:59:43;23.98;;;12.27;;
58137;SDS011;43955;47.362;18.930;2023-03-23T03:02:14;21.15;;;11.85;;
58137;SDS011;43955;47.362;18.930;2023-03-23T03:07:42;24.12;;;11.88;;
58137;SDS011;43955;47.362;18.930;2023-03-23T03:13:09;20.85;;;11.77;;
58137;SDS011;43955;47.362;18.930;2023-03-23T03:18:21;20.60;;;11.68;;
58137;SDS011;43955;47.362;18.930;2023-03-23T03:20:52;24.98;;;11.63;;
58137;SDS011;43955;47.362;18.930;2023-03-23T03:23:22;26.17;;;12.65;;
58137;SDS011;43955;47.362;18.930;2023-03-23T03:25:49;22.75;;;12.15;;
58137;SDS011;43955;47.362;18.930;2023-03-23T03:28:17;22.27;;;12.57;;
58137;SDS011;43955;47.362;18.930;2023-03-23T03:30:52;20.45;;;11.30;;
58137;SDS011;43955;47.362;18.930;2023-03-23T03:33:22;20.55;;;11.45;;
58137;SDS011;43955;47.362;18.930;2023-03-23T03:35:52;21.23;;;11.73;;
58137;SDS011;43955;47.362;18.930;2023-03-23T03:38:20;24.50;;;11.75;;
58137;SDS011;43955;47.362;18.930;2023-03-23T03:40:46;20.65;;;12.25;;
58137;SDS011;43955;47.362;18.930;2023-03-23T03:43:12;26.77;;;13.10;;
58137;SDS011;43955;47.362;18.930;2023-03-23T03:45:38;26.85;;;13.68;;
58137;SDS011;43955;47.362;18.930;2023-03-23T03:48:06;23.87;;;12.85;;
58137;SDS011;43955;47.362;18.930;2023-03-23T03:50:32;22.87;;;11.12;;
58137;SDS011;43955;47.362;18.930;2023-03-23T03:52:58;26.70;;;12.75;;
58137;SDS011;43955;47.362;18.930;2023-03-23T03:55:25;25.30;;;12.52;;
58137;SDS011;43955;47.362;18.930;2023-03-23T03:57:56;28.58;;;12.20;;
58137;SDS011;43955;47.362;18.930;2023-03-23T04:00:24;22.52;;;12.90;;
58137;SDS011;43955;47.362;18.930;2023-03-23T04:02:51;26.52;;;12.15;;
58137;SDS011;43955;47.362;18.930;2023-03-23T04:05:21;26.50;;;12.82;;
58137;SDS011;43955;47.362;18.930;2023-03-23T04:07:49;24.55;;;13.02;;
58137;SDS011;43955;47.362;18.930;2023-03-23T04:10:18;28.30;;;13.98;;
58137;SDS011;43955;47.362;18.930;2023-03-23T04:12:48;29.60;;;14.10;;
58137;SDS011;43955;47.362;18.930;2023-03-23T04:15:18;25.90;;;12.32;;
58137;SDS011;43955;47.362;18.930;2023-03-23T04:17:44;25.98;;;13.15;;
58137;SDS011;43955;47.362;18.930;2023-03-23T04:20:10;25.92;;;12.50;;
58137;SDS011;43955;47.362;18.930;2023-03-23T04:22:40;25.50;;;13.30;;
58137;SDS011;43955;47.362;18.930;2023-03-23T04:25:09;21.33;;;12.10;;
58137;SDS011;43955;47.362;18.930;2023-03-23T04:27:39;24.45;;;12.73;;
58137;SDS011;43955;47.362;18.930;2023-03-23T04:30:10;22.80;;;12.63;;
58137;SDS011;43955;47.362;18.930;2023-03-23T04:32:39;38.90;;;18.83;;
58137;SDS011;43955;47.362;18.930;2023-03-23T04:35:10;31.73;;;14.40;;
58137;SDS011;43955;47.362;18.930;2023-03-23T04:37:38;29.65;;;13.50;;
58137;SDS011;43955;47.362;18.930;2023-03-23T04:40:07;24.90;;;12.50;;
58137;SDS011;43955;47.362;18.930;2023-03-23T04:42:37;30.52;;;13.27;;
58137;SDS011;43955;47.362;18.930;2023-03-23T04:45:08;25.95;;;13.25;;
58137;SDS011;43955;47.362;18.930;2023-03-23T04:47:35;41.60;;;15.60;;
58137;SDS011;43955;47.362;18.930;2023-03-23T04:50:10;39.97;;;18.20;;
58137;SDS011;43955;47.362;18.930;2023-03-23T04:52:40;134.93;;;35.33;;
58137;SDS011;43955;47.362;18.930;2023-03-23T04:55:12;60.85;;;26.98;;
58137;SDS011;43955;47.362;18.930;2023-03-23T04:57:39;34.65;;;18.37;;
58137;SDS011;43955;47.362;18.930;2023-03-23T05:00:07;36.42;;;16.45;;
58137;SDS011;43955;47.362;18.930;2023-03-23T05:02:36;23.98;;;13.35;;
58137;SDS011;43955;47.362;18.930;2023-03-23T05:05:02;32.80;;;15.55;;
58137;SDS011;43955;47.362;18.930;2023-03-23T05:07:29;27.75;;;13.98;;
58137;SDS011;43955;47.362;18.930;2023-03-23T05:09:56;36.50;;;14.77;;
58137;SDS011;43955;47.362;18.930;2023-03-23T05:12:22;49.17;;;15.80;;
58137;SDS011;43955;47.362;18.930;2023-03-23T05:14:48;25.88;;;12.85;;
58137;SDS011;43955;47.362;18.930;2023-03-23T05:17:16;26.77;;;13.93;;
58137;SDS011;43955;47.362;18.930;2023-03-23T05:19:44;34.30;;;14.13;;
58137;SDS011;43955;47.362;18.930;2023-03-23T05:22:15;28.42;;;13.88;;
58137;SDS011;43955;47.362;18.930;2023-03-23T05:24:42;39.38;;;13.60;;
58137;SDS011;43955;47.362;18.930;2023-03-23T05:27:09;32.78;;;14.48;;
58137;SDS011;43955;47.362;18.930;2023-03-23T05:29:37;45.25;;;18.52;;
58137;SDS011;43955;47.362;18.930;2023-03-23T05:32:07;36.92;;;15.68;;
58137;SDS011;43955;47.362;18.930;2023-03-23T05:34:34;44.03;;;18.87;;
58137;SDS011;43955;47.362;18.930;2023-03-23T05:37:02;143.82;;;24.52;;
58137;SDS011;43955;47.362;18.930;2023-03-23T05:39:31;41.28;;;18.23;;
58137;SDS011;43955;47.362;18.930;2023-03-23T05:41:59;78.50;;;19.20;;
58137;SDS011;43955;47.362;18.930;2023-03-23T05:44:26;44.67;;;17.45;;
58137;SDS011;43955;47.362;18.930;2023-03-23T05:46:52;72.40;;;19.05;;
58137;SDS011;43955;47.362;18.930;2023-03-23T05:49:19;68.18;;;20.75;;
58137;SDS011;43955;47.362;18.930;2023-03-23T05:51:45;82.68;;;18.77;;
58137;SDS011;43955;47.362;18.930;2023-03-23T05:54:13;84.93;;;20.55;;
58137;SDS011;43955;47.362;18.930;2023-03-23T05:56:40;49.92;;;16.33;;
58137;SDS011;43955;47.362;18.930;2023-03-23T05:59:08;57.20;;;17.45;;
58137;SDS011;43955;47.362;18.930;2023-03-23T06:01:37;102.57;;;18.73;;
58137;SDS011;43955;47.362;18.930;2023-03-23T06:04:04;71.18;;;20.35;;
58137;SDS011;43955;47.362;18.930;2023-03-23T06:06:32;111.20;;;21.23;;
58137;SDS011;43955;47.362;18.930;2023-03-23T06:09:00;62.42;;;17.30;;
58137;SDS011;43955;47.362;18.930;2023-03-23T06:11:28;34.47;;;14.05;;
58137;SDS011;43955;47.362;18.930;2023-03-23T06:13:55;39.50;;;13.40;;
58137;SDS011;43955;47.362;18.930;2023-03-23T06:16:22;26.02;;;13.50;;
58137;SDS011;43955;47.362;18.930;2023-03-23T06:18:49;32.75;;;13.93;;
58137;SDS011;43955;47.362;18.930;2023-03-23T06:21:16;24.73;;;13.85;;
58137;SDS011;43955;47.362;18.930;2023-03-23T06:23:45;27.40;;;13.65;;
58137;SDS011;43955;47.362;18.930;2023-03-23T06:26:13;36.47;;;12.80;;
58137;SDS011;43955;47.362;18.930;2023-03-23T06:28:42;26.58;;;12.52;;
58137;SDS011;43955;47.362;18.930;2023-03-23T06:31:09;23.15;;;11.80;;
58137;SDS011;43955;47.362;18.930;2023-03-23T06:33:37;21.25;;;12.10;;
58137;SDS011;43955;47.362;18.930;2023-03-23T06:36:05;35.72;;;12.88;;
58137;SDS011;43955;47.362;18.930;2023-03-23T06:38:32;38.90;;;14.27;;
58137;SDS011;43955;47.362;18.930;2023-03-23T06:40:59;19.70;;;10.85;;
58137;SDS011;43955;47.362;18.930;2023-03-23T06:43:26;26.58;;;11.02;;
58137;SDS011;43955;47.362;18.930;2023-03-23T06:45:52;23.58;;;12.82;;
58137;SDS011;43955;47.362;18.930;2023-03-23T06:48:20;27.27;;;15.57;;
58137;SDS011;43955;47.362;18.930;2023-03-23T06:50:47;64.15;;;16.20;;
58137;SDS011;43955;47.362;18.930;2023-03-23T06:53:14;26.42;;;13.07;;
58137;SDS011;43955;47.362;18.930;2023-03-23T06:55:42;19.90;;;11.25;;
58137;SDS011;43955;47.362;18.930;2023-03-23T06:58:09;21.85;;;12.48;;
58137;SDS011;43955;47.362;18.930;2023-03-23T07:00:36;23.15;;;11.98;;
58137;SDS011;43955;47.362;18.930;2023-03-23T07:03:03;21.98;;;13.68;;
58137;SDS011;43955;47.362;18.930;2023-03-23T07:05:30;35.80;;;13.50;;
58137;SDS011;43955;47.362;18.930;2023-03-23T07:07:56;24.58;;;10.73;;
58137;SDS011;43955;47.362;18.930;2023-03-23T07:10:24;27.33;;;12.80;;
58137;SDS011;43955;47.362;18.930;2023-03-23T07:12:51;26.62;;;12.13;;
58137;SDS011;43955;47.362;18.930;2023-03-23T07:15:17;22.42;;;11.48;;
58137;SDS011;43955;47.362;18.930;2023-03-23T07:17:46;22.52;;;11.60;;
58137;SDS011;43955;47.362;18.930;2023-03-23T07:20:14;24.73;;;12.57;;
58137;SDS011;43955;47.362;18.930;2023-03-23T07:22:41;25.95;;;13.00;;
58137;SDS011;43955;47.362;18.930;2023-03-23T07:25:10;31.12;;;13.57;;
58137;SDS011;43955;47.362;18.930;2023-03-23T07:27:58;19.35;;;12.30;;
58137;SDS011;43955;47.362;18.930;2023-03-23T07:30:33;28.10;;;13.02;;
58137;SDS011;43955;47.362;18.930;2023-03-23T07:33:06;24.63;;;11.68;;
58137;SDS011;43955;47.362;18.930;2023-03-23T07:35:34;22.60;;;12.05;;
58137;SDS011;43955;47.362;18.930;2023-03-23T07:38:01;26.52;;;12.50;;
58137;SDS011;43955;47.362;18.930;2023-03-23T07:40:28;22.77;;;12.40;;
58137;SDS011;43955;47.362;18.930;2023-03-23T07:42:58;40.83;;;12.98;;
58137;SDS011;43955;47.362;18.930;2023-03-23T07:45:26;22.37;;;13.68;;
58137;SDS011;43955;47.362;18.930;2023-03-23T07:47:56;27.37;;;12.13;;
58137;SDS011;43955;47.362;18.930;2023-03-23T07:50:22;24.60;;;12.63;;
58137;SDS011;43955;47.362;18.930;2023-03-23T07:52:53;22.58;;;13.15;;
58137;SDS011;43955;47.362;18.930;2023-03-23T07:55:21;20.52;;;11.07;;
58137;SDS011;43955;47.362;18.930;2023-03-23T07:57:50;22.73;;;13.25;;
58137;SDS011;43955;47.362;18.930;2023-03-23T08:00:18;26.33;;;13.90;;
58137;SDS011;43955;47.362;18.930;2023-03-23T11:34:26;10.07;;;3.08;;
58137;SDS011;43955;47.362;18.930;2023-03-23T11:37:05;6.40;;;2.58;;
58137;SDS011;43955;47.362;18.930;2023-03-23T11:39:34;5.37;;;2.40;;
58137;SDS011;43955;47.362;18.930;2023-03-23T11:42:23;5.80;;;2.35;;
58137;SDS011;43955;47.362;18.930;2023-03-23T11:44:54;5.35;;;2.53;;
58137;SDS011;43955;47.362;18.930;2023-03-23T11:58:12;56.58;;;5.87;;
58137;SDS011;43955;47.362;18.930;2023-03-23T12:00:55;10.32;;;2.50;;
58137;SDS011;43955;47.362;18.930;2023-03-23T12:03:22;4.60;;;2.17;;
58137;SDS011;43955;47.362;18.930;2023-03-23T12:06:00;25.55;;;3.37;;
58137;SDS011;43955;47.362;18.930;2023-03-23T12:11:17;7.93;;;2.40;;
58137;SDS011;43955;47.362;18.930;2023-03-23T12:27:12;7.43;;;2.83;;
58137;SDS011;43955;47.362;18.930;2023-03-23T12:29:51;10.43;;;2.42;;
58137;SDS011;43955;47.362;18.930;2023-03-23T12:48:46;3.72;;;1.80;;
58137;SDS011;43955;47.362;18.930;2023-03-23T12:51:21;5.65;;;1.98;;
58137;SDS011;43955;47.362;18.930;2023-03-23T12:54:18;4.20;;;2.00;;
58137;SDS011;43955;47.362;18.930;2023-03-23T12:59:30;6.28;;;2.20;;
58137;SDS011;43955;47.362;18.930;2023-03-23T13:07:57;3.58;;;1.83;;
58137;SDS011;43955;47.362;18.930;2023-03-23T13:10:29;3.05;;;1.90;;
58137;SDS011;43955;47.362;18.930;2023-03-23T13:12:58;9.07;;;1.98;;
58137;SDS011;43955;47.362;18.930;2023-03-23T13:21:31;6.87;;;2.78;;
58137;SDS011;43955;47.362;18.930;2023-03-23T13:26:24;19.42;;;3.28;;
58137;SDS011;43955;47.362;18.930;2023-03-23T13:31:27;4.60;;;1.92;;
58137;SDS011;43955;47.362;18.930;2023-03-23T13:36:30;8.43;;;2.62;;
58137;SDS011;43955;47.362;18.930;2023-03-23T13:38:58;7.95;;;2.20;;
58137;SDS011;43955;47.362;18.930;2023-03-23T13:41:25;402.33;;;30.37;;
58137;SDS011;43955;47.362;18.930;2023-03-23T13:44:04;11.98;;;2.60;;
58137;SDS011;43955;47.362;18.930;2023-03-23T13:46:31;3.00;;;1.85;;
58137;SDS011;43955;47.362;18.930;2023-03-23T13:49:14;6.70;;;2.30;;
58137;SDS011;43955;47.362;18.930;2023-03-23T13:54:30;4.25;;;2.35;;
58137;SDS011;43955;47.362;18.930;2023-03-23T13:57:00;17.30;;;3.05;;
58137;SDS011;43955;47.362;18.930;2023-03-23T13:59:30;4.43;;;2.28;;
58137;SDS011;43955;47.362;18.930;2023-03-23T14:02:21;4.05;;;2.00;;
58137;SDS011;43955;47.362;18.930;2023-03-23T14:10:36;12.20;;;2.55;;
58137;SDS011;43955;47.362;18.930;2023-03-23T14:13:03;12.93;;;2.60;;
58137;SDS011;43955;47.362;18.930;2023-03-23T14:15:36;7.10;;;2.50;;
58137;SDS011;43955;47.362;18.930;2023-03-23T14:18:06;6.15;;;2.00;;
58137;SDS011;43955;47.362;18.930;2023-03-23T14:20:33;6.30;;;1.90;;
58137;SDS011;43955;47.362;18.930;2023-03-23T14:23:02;12.23;;;2.97;;
58137;SDS011;43955;47.362;18.930;2023-03-23T14:25:29;8.88;;;1.95;;
58137;SDS011;43955;47.362;18.930;2023-03-23T14:27:59;7.15;;;2.12;;
58137;SDS011;43955;47.362;18.930;2023-03-23T14:30:26;26.50;;;3.97;;
58137;SDS011;43955;47.362;18.930;2023-03-23T14:33:06;8.82;;;2.67;;
58137;SDS011;43955;47.362;18.930;2023-03-23T14:35:35;8.98;;;2.40;;
58137;SDS011;43955;47.362;18.930;2023-03-23T14:38:03;10.95;;;2.42;;
58137;SDS011;43955;47.362;18.930;2023-03-23T14:40:29;42.17;;;4.57;;
58137;SDS011;43955;47.362;18.930;2023-03-23T14:42:56;12.00;;;3.08;;
58137;SDS011;43955;47.362;18.930;2023-03-23T14:45:23;9.02;;;3.00;;
58137;SDS011;43955;47.362;18.930;2023-03-23T14:47:57;55.17;;;5.43;;
58137;SDS011;43955;47.362;18.930;2023-03-23T14:50:41;19.15;;;8.10;;
58137;SDS011;43955;47.362;18.930;2023-03-23T14:55:48;10.45;;;3.47;;
58137;SDS011;43955;47.362;18.930;2023-03-23T14:58:17;14.30;;;3.70;;
58137;SDS011;43955;47.362;18.930;2023-03-23T15:01:09;11.85;;;3.03;;
58137;SDS011;43955;47.362;18.930;2023-03-23T15:03:37;38.80;;;4.95;;
58137;SDS011;43955;47.362;18.930;2023-03-23T15:06:09;18.70;;;8.98;;
58137;SDS011;43955;47.362;18.930;2023-03-23T15:08:47;29.87;;;15.10;;
58137;SDS011;43955;47.362;18.930;2023-03-23T15:13:43;75.93;;;9.90;;
58137;SDS011;43955;47.362;18.930;2023-03-23T15:16:32;23.45;;;5.25;;
58137;SDS011;43955;47.362;18.930;2023-03-23T15:19:00;42.35;;;6.22;;
58137;SDS011;43955;47.362;18.930;2023-03-23T15:24:20;28.75;;;4.53;;
58137;SDS011;43955;47.362;18.930;2023-03-23T15:26:52;18.15;;;3.45;;
58137;SDS011;43955;47.362;18.930;2023-03-23T15:29:19;9.30;;;2.67;;
58137;SDS011;43955;47.362;18.930;2023-03-23T15:31:51;8.73;;;3.92;;
58137;SDS011;43955;47.362;18.930;2023-03-23T15:34:21;44.95;;;10.63;;
58137;SDS011;43955;47.362;18.930;2023-03-23T15:36:51;31.52;;;14.55;;
58137;SDS011;43955;47.362;18.930;2023-03-23T15:39:21;33.35;;;14.10;;
58137;SDS011;43955;47.362;18.930;2023-03-23T15:41:48;37.53;;;16.17;;
58137;SDS011;43955;47.362;18.930;2023-03-23T15:44:22;52.10;;;20.30;;
58137;SDS011;43955;47.362;18.930;2023-03-23T15:46:52;55.95;;;22.85;;
58137;SDS011;43955;47.362;18.930;2023-03-23T15:49:19;26.15;;;12.82;;
58137;SDS011;43955;47.362;18.930;2023-03-23T15:51:47;46.67;;;23.27;;
58137;SDS011;43955;47.362;18.930;2023-03-23T15:54:14;42.38;;;18.85;;
58137;SDS011;43955;47.362;18.930;2023-03-23T15:56:41;32.97;;;13.68;;
58137;SDS011;43955;47.362;18.930;2023-03-23T15:59:08;14.57;;;7.10;;
58137;SDS011;43955;47.362;18.930;2023-03-23T16:01:38;309.70;;;27.20;;
58137;SDS011;43955;47.362;18.930;2023-03-23T16:04:16;17.70;;;6.70;;
58137;SDS011;43955;47.362;18.930;2023-03-23T16:06:44;13.30;;;7.68;;
58137;SDS011;43955;47.362;18.930;2023-03-23T16:09:13;17.37;;;5.87;;
58137;SDS011;43955;47.362;18.930;2023-03-23T16:11:42;30.50;;;7.40;;
58137;SDS011;43955;47.362;18.930;2023-03-23T16:14:09;15.30;;;6.75;;
58137;SDS011;43955;47.362;18.930;2023-03-23T16:16:38;11.63;;;5.12;;
58137;SDS011;43955;47.362;18.930;2023-03-23T16:19:13;12.90;;;8.55;;
58137;SDS011;43955;47.362;18.930;2023-03-23T16:21:41;14.90;;;6.10;;
58137;SDS011;43955;47.362;18.930;2023-03-23T16:24:09;15.15;;;6.47;;
58137;SDS011;43955;47.362;18.930;2023-03-23T16:26:37;19.48;;;10.25;;
58137;SDS011;43955;47.362;18.930;2023-03-23T16:29:13;22.50;;;6.65;;
58137;SDS011;43955;47.362;18.930;2023-03-23T16:32:01;74.97;;;12.68;;
58137;SDS011;43955;47.362;18.930;2023-03-23T16:34:29;28.67;;;9.95;;
58137;SDS011;43955;47.362;18.930;2023-03-23T16:36:59;152.35;;;22.98;;
58137;SDS011;43955;47.362;18.930;2023-03-23T16:39:27;186.30;;;22.73;;
58137;SDS011;43955;47.362;18.930;2023-03-23T16:41:54;151.32;;;19.30;;
58137;SDS011;43955;47.362;18.930;2023-03-23T16:44:21;338.37;;;38.33;;
58137;SDS011;43955;47.362;18.930;2023-03-23T16:46:49;148.23;;;18.45;;
58137;SDS011;43955;47.362;18.930;2023-03-23T16:49:16;320.35;;;33.53;;
58137;SDS011;43955;47.362;18.930;2023-03-23T16:51:43;360.88;;;42.17;;
58137;SDS011;43955;47.362;18.930;2023-03-23T16:54:11;286.25;;;33.50;;
58137;SDS011;43955;47.362;18.930;2023-03-23T16:56:38;236.73;;;30.83;;
58137;SDS011;43955;47.362;18.930;2023-03-23T16:59:06;98.87;;;17.05;;
58137;SDS011;43955;47.362;18.930;2023-03-23T17:01:33;77.87;;;12.55;;
58137;SDS011;43955;47.362;18.930;2023-03-23T17:04:01;69.70;;;11.05;;
58137;SDS011;43955;47.362;18.930;2023-03-23T17:06:28;71.05;;;14.40;;
58137;SDS011;43955;47.362;18.930;2023-03-23T17:08:55;149.02;;;20.98;;
58137;SDS011;43955;47.362;18.930;2023-03-23T17:11:22;213.00;;;25.45;;
58137;SDS011;43955;47.362;18.930;2023-03-23T17:13:50;126.07;;;21.27;;
58137;SDS011;43955;47.362;18.930;2023-03-23T17:16:17;93.22;;;17.83;;
58137;SDS011;43955;47.362;18.930;2023-03-23T17:18:44;125.65;;;19.00;;
58137;SDS011;43955;47.362;18.930;2023-03-23T17:21:11;100.62;;;17.67;;
58137;SDS011;43955;47.362;18.930;2023-03-23T17:23:39;70.28;;;15.35;;
58137;SDS011;43955;47.362;18.930;2023-03-23T17:26:06;140.93;;;23.42;;
58137;SDS011;43955;47.362;18.930;2023-03-23T17:28:33;242.75;;;24.92;;
58137;SDS011;43955;47.362;18.930;2023-03-23T17:31:01;94.13;;;15.38;;
58137;SDS011;43955;47.362;18.930;2023-03-23T17:33:28;187.35;;;23.80;;
58137;SDS011;43955;47.362;18.930;2023-03-23T17:35:56;252.35;;;26.42;;
58137;SDS011;43955;47.362;18.930;2023-03-23T17:38:23;401.27;;;43.05;;
58137;SDS011;43955;47.362;18.930;2023-03-23T17:40:57;249.55;;;28.33;;
58137;SDS011;43955;47.362;18.930;2023-03-23T17:43:25;207.98;;;26.58;;
58137;SDS011;43955;47.362;18.930;2023-03-23T17:45:52;282.08;;;30.83;;
58137;SDS011;43955;47.362;18.930;2023-03-23T17:48:19;383.70;;;36.47;;
58137;SDS011;43955;47.362;18.930;2023-03-23T17:50:47;287.45;;;28.95;;
58137;SDS011;43955;47.362;18.930;2023-03-23T17:53:15;234.07;;;29.12;;
58137;SDS011;43955;47.362;18.930;2023-03-23T17:55:44;226.62;;;29.27;;
58137;SDS011;43955;47.362;18.930;2023-03-23T17:58:12;210.80;;;24.83;;
58137;SDS011;43955;47.362;18.930;2023-03-23T18:00:39;205.65;;;32.33;;
58137;SDS011;43955;47.362;18.930;2023-03-23T18:03:07;197.30;;;29.75;;
58137;SDS011;43955;47.362;18.930;2023-03-23T18:05:34;153.00;;;22.70;;
58137;SDS011;43955;47.362;18.930;2023-03-23T18:08:04;370.45;;;36.53;;
58137;SDS011;43955;47.362;18.930;2023-03-23T18:10:34;287.42;;;23.45;;
58137;SDS011;43955;47.362;18.930;2023-03-23T18:13:02;92.43;;;16.12;;
58137;SDS011;43955;47.362;18.930;2023-03-23T18:15:31;63.65;;;14.57;;
58137;SDS011;43955;47.362;18.930;2023-03-23T18:17:59;65.55;;;14.77;;
58137;SDS011;43955;47.362;18.930;2023-03-23T18:20:32;93.60;;;15.88;;
58137;SDS011;43955;47.362;18.930;2023-03-23T18:22:59;110.15;;;18.60;;
58137;SDS011;43955;47.362;18.930;2023-03-23T18:25:29;133.07;;;17.48;;
58137;SDS011;43955;47.362;18.930;2023-03-23T18:27:56;86.75;;;12.82;;
58137;SDS011;43955;47.362;18.930;2023-03-23T18:30:31;64.12;;;14.07;;
58137;SDS011;43955;47.362;18.930;2023-03-23T18:32:59;178.95;;;17.85;;
58137;SDS011;43955;47.362;18.930;2023-03-23T18:35:27;102.05;;;15.95;;
58137;SDS011;43955;47.362;18.930;2023-03-23T18:37:54;66.03;;;10.80;;
58137;SDS011;43955;47.362;18.930;2023-03-23T18:40:22;97.32;;;15.88;;
58137;SDS011;43955;47.362;18.930;2023-03-23T18:42:53;159.52;;;20.42;;
58137;SDS011;43955;47.362;18.930;2023-03-23T18:45:21;240.30;;;23.27;;
58137;SDS011;43955;47.362;18.930;2023-03-23T18:47:48;217.93;;;28.42;;
58137;SDS011;43955;47.362;18.930;2023-03-23T18:50:18;221.00;;;32.13;;
58137;SDS011;43955;47.362;18.930;2023-03-23T18:52:46;113.72;;;16.92;;
58137;SDS011;43955;47.362;18.930;2023-03-23T18:55:13;61.37;;;15.50;;
58137;SDS011;43955;47.362;18.930;2023-03-23T18:57:41;45.33;;;13.65;;
58137;SDS011;43955;47.362;18.930;2023-03-23T19:00:08;77.62;;;24.05;;
58137;SDS011;43955;47.362;18.930;2023-03-23T19:02:36;129.48;;;19.40;;
58137;SDS011;43955;47.362;18.930;2023-03-23T19:05:06;80.30;;;18.25;;
58137;SDS011;43955;47.362;18.930;2023-03-23T19:07:34;38.05;;;11.95;;
58137;SDS011;43955;47.362;18.930;2023-03-23T19:10:01;110.00;;;18.30;;
58137;SDS011;43955;47.362;18.930;2023-03-23T19:12:28;122.50;;;17.87;;
58137;SDS011;43955;47.362;18.930;2023-03-23T19:14:56;201.00;;;23.45;;
58137;SDS011;43955;47.362;18.930;2023-03-23T19:17:23;80.68;;;13.52;;
58137;SDS011;43955;47.362;18.930;2023-03-23T19:19:51;103.85;;;18.52;;
58137;SDS011;43955;47.362;18.930;2023-03-23T19:22:19;64.78;;;16.67;;
58137;SDS011;43955;47.362;18.930;2023-03-23T19:24:46;47.58;;;12.45;;
58137;SDS011;43955;47.362;18.930;2023-03-23T19:27:14;42.13;;;13.50;;
58137;SDS011;43955;47.362;18.930;2023-03-23T19:29:42;52.85;;;17.40;;
58137;SDS011;43955;47.362;18.930;2023-03-23T19:32:09;46.35;;;18.20;;
58137;SDS011;43955;47.362;18.930;2023-03-23T19:34:37;38.53;;;14.30;;
58137;SDS011;43955;47.362;18.930;2023-03-23T19:37:05;43.22;;;13.13;;
58137;SDS011;43955;47.362;18.930;2023-03-23T19:39:37;114.62;;;19.92;;
58137;SDS011;43955;47.362;18.930;2023-03-23T19:42:07;98.30;;;18.60;;
58137;SDS011;43955;47.362;18.930;2023-03-23T19:44:35;59.42;;;16.92;;